createdAt,value
2017-07-22T00:00:04.286Z,1008.3
2017-07-22T00:01:06.722Z,1008.3
2017-07-22T00:02:09.164Z,1008.4
2017-07-22T00:03:11.248Z,1008.4
2017-07-22T00:04:13.346Z,1008.4
2017-07-22T00:05:15.437Z,1008.5
2017-07-22T00:06:17.876Z,1008.5
2017-07-22T00:07:19.977Z,1008.5
2017-07-22T00:08:22.060Z,1008.5
2017-07-22T00:09:24.503Z,1008.5
2017-07-22T00:10:26.595Z,1008.4
2017-07-22T00:11:29.014Z,1008.5
2017-07-22T00:12:31.101Z,1008.4
2017-07-22T00:13:33.231Z,1008.4
2017-07-22T00:14:35.652Z,1008.3
2017-07-22T00:15:38.452Z,1008.3
2017-07-22T00:16:40.877Z,1008.2
2017-07-22T00:17:43.323Z,1008.1
2017-07-22T00:18:45.427Z,1008.1
2017-07-22T00:19:47.854Z,1008.1
2017-07-22T00:20:49.931Z,1008.2
2017-07-22T00:21:52.027Z,1008.2
2017-07-22T00:22:54.461Z,1008.2
2017-07-22T00:23:56.566Z,1008.2
2017-07-22T00:24:58.656Z,1008.3
2017-07-22T00:26:01.084Z,1008.3
2017-07-22T00:27:03.554Z,1008.3
2017-07-22T00:28:05.976Z,1008.3
2017-07-22T00:29:08.075Z,1008.3
2017-07-22T00:30:10.520Z,1008.3
2017-07-22T00:31:12.966Z,1008.3
2017-07-22T00:32:15.056Z,1008.4
2017-07-22T00:33:17.145Z,1008.4
2017-07-22T00:34:19.242Z,1008.3
2017-07-22T00:35:21.667Z,1008.4
2017-07-22T00:36:23.758Z,1008.4
2017-07-22T00:37:25.851Z,1008.4
2017-07-22T00:38:27.937Z,1008.3
2017-07-22T00:39:30.031Z,1008.3
2017-07-22T00:40:32.820Z,1008.3
2017-07-22T00:41:35.241Z,1008.3
2017-07-22T00:42:37.335Z,1008.3
2017-07-22T00:43:39.761Z,1008.3
2017-07-22T00:44:41.857Z,1008.3
2017-07-22T00:45:44.292Z,1008.3
2017-07-22T00:46:46.373Z,1008.3
2017-07-22T00:47:48.486Z,1008.2
2017-07-22T00:48:50.926Z,1008.2
2017-07-22T00:49:53.029Z,1008.2
2017-07-22T00:50:55.115Z,1008.2
2017-07-22T00:51:57.202Z,1008.2
2017-07-22T00:52:59.973Z,1008.2
2017-07-22T00:54:02.065Z,1008.1
2017-07-22T00:55:04.149Z,1008.2
2017-07-22T00:56:06.241Z,1008.1
2017-07-22T00:57:08.334Z,1008.1
2017-07-22T00:58:10.421Z,1008.1
2017-07-22T00:59:12.529Z,1008.2
2017-07-22T01:00:14.638Z,1008.1
2017-07-22T01:01:17.058Z,1008.2
2017-07-22T01:02:19.143Z,1008.2
2017-07-22T01:03:21.240Z,1008.2
2017-07-22T01:04:23.347Z,1008.2
2017-07-22T01:05:25.789Z,1008.2
2017-07-22T01:06:28.226Z,1008.2
2017-07-22T01:07:31.006Z,1008.1
2017-07-22T01:08:33.079Z,1008.1
2017-07-22T01:09:35.153Z,1008.1
2017-07-22T01:10:37.261Z,1008
2017-07-22T01:11:39.351Z,1008
2017-07-22T01:12:41.775Z,1008
2017-07-22T01:13:43.869Z,1008
2017-07-22T01:14:45.971Z,1008
2017-07-22T01:15:48.079Z,1008
2017-07-22T01:16:50.523Z,1008
2017-07-22T01:17:52.622Z,1007.9
2017-07-22T01:18:55.409Z,1008
2017-07-22T01:19:58.179Z,1007.9
2017-07-22T01:21:00.938Z,1007.9
2017-07-22T01:22:03.356Z,1008
2017-07-22T01:23:05.464Z,1008
2017-07-22T01:24:07.564Z,1008
2017-07-22T01:25:09.651Z,1008
2017-07-22T01:26:11.761Z,1008
2017-07-22T01:27:13.872Z,1008
2017-07-22T01:28:15.972Z,1008
2017-07-22T01:29:18.399Z,1008
2017-07-22T01:30:20.497Z,1008
2017-07-22T01:31:22.583Z,1008
2017-07-22T01:32:24.664Z,1007.9
2017-07-22T01:33:26.754Z,1007.9
2017-07-22T01:34:29.181Z,1007.9
2017-07-22T01:35:31.256Z,1007.9
2017-07-22T01:36:33.340Z,1007.9
2017-07-22T01:37:35.429Z,1007.9
2017-07-22T01:38:37.853Z,1007.9
2017-07-22T01:39:40.343Z,1007.8
2017-07-22T01:40:42.439Z,1007.8
2017-07-22T01:41:44.519Z,1007.8
2017-07-22T01:42:46.626Z,1007.8
2017-07-22T01:43:48.709Z,1007.7
2017-07-22T01:44:50.808Z,1007.7
2017-07-22T01:45:52.897Z,1007.7
2017-07-22T01:46:55.648Z,1007.7
2017-07-22T01:47:57.741Z,1007.7
2017-07-22T01:49:00.169Z,1007.7
2017-07-22T01:50:02.249Z,1007.6
2017-07-22T01:51:04.393Z,1007.6
2017-07-22T01:52:07.147Z,1007.6
2017-07-22T01:53:09.241Z,1007.5
2017-07-22T01:54:11.330Z,1007.5
2017-07-22T01:55:14.092Z,1007.5
2017-07-22T01:56:16.171Z,1007.5
2017-07-22T01:57:18.248Z,1007.5
2017-07-22T01:58:20.357Z,1007.5
2017-07-22T01:59:22.790Z,1007.4
2017-07-22T02:00:25.212Z,1007.5
2017-07-22T02:01:27.308Z,1007.5
2017-07-22T02:02:29.396Z,1007.5
2017-07-22T02:03:31.479Z,1007.4
2017-07-22T02:04:33.572Z,1007.4
2017-07-22T02:05:35.659Z,1007.4
2017-07-22T02:06:37.764Z,1007.4
2017-07-22T02:07:40.189Z,1007.4
2017-07-22T02:08:42.277Z,1007.4
2017-07-22T02:09:44.394Z,1007.4
2017-07-22T02:10:46.477Z,1007.4
2017-07-22T02:11:48.905Z,1007.4
2017-07-22T02:12:51.332Z,1007.4
2017-07-22T02:13:53.428Z,1007.3
2017-07-22T02:14:55.496Z,1007.3
2017-07-22T02:15:57.582Z,1007.3
2017-07-22T02:16:59.701Z,1007.3
2017-07-22T02:18:01.788Z,1007.3
2017-07-22T02:19:03.870Z,1007.3
2017-07-22T02:20:06.638Z,1007.3
2017-07-22T02:21:08.759Z,1007.3
2017-07-22T02:22:10.843Z,1007.3
2017-07-22T02:23:12.931Z,1007.3
2017-07-22T02:24:15.380Z,1007.3
2017-07-22T02:25:17.815Z,1007.2
2017-07-22T02:26:19.899Z,1007.2
2017-07-22T02:27:21.997Z,1007.2
2017-07-22T02:28:24.443Z,1007.2
2017-07-22T02:29:26.533Z,1007.3
2017-07-22T02:30:28.613Z,1007.3
2017-07-22T02:31:31.408Z,1007.3
2017-07-22T02:32:33.856Z,1007.3
2017-07-22T02:33:35.953Z,1007.3
2017-07-22T02:34:38.407Z,1007.3
2017-07-22T02:35:40.491Z,1007.3
2017-07-22T02:36:42.942Z,1007.3
2017-07-22T02:37:45.363Z,1007.3
2017-07-22T02:38:47.453Z,1007.3
2017-07-22T02:39:49.548Z,1007.3
2017-07-22T02:40:52.009Z,1007.3
2017-07-22T02:41:54.445Z,1007.4
2017-07-22T02:42:56.876Z,1007.4
2017-07-22T02:43:59.316Z,1007.4
2017-07-22T02:45:02.448Z,1007.4
2017-07-22T02:46:04.527Z,1007.4
2017-07-22T02:47:06.973Z,1007.3
2017-07-22T02:48:09.424Z,1007.3
2017-07-22T02:49:11.531Z,1007.4
2017-07-22T02:50:13.620Z,1007.4
2017-07-22T02:51:16.060Z,1007.4
2017-07-22T02:52:18.155Z,1007.3
2017-07-22T02:53:20.578Z,1007.3
2017-07-22T02:54:22.665Z,1007.4
2017-07-22T02:55:24.765Z,1007.4
2017-07-22T02:56:26.850Z,1007.4
2017-07-22T02:57:28.961Z,1007.4
2017-07-22T02:58:31.052Z,1007.4
2017-07-22T02:59:33.501Z,1007.4
2017-07-22T03:00:35.589Z,1007.5
2017-07-22T03:01:37.679Z,1007.5
2017-07-22T03:02:39.761Z,1007.5
2017-07-22T03:03:42.190Z,1007.5
2017-07-22T03:04:44.613Z,1007.5
2017-07-22T03:05:46.715Z,1007.5
2017-07-22T03:06:48.792Z,1007.5
2017-07-22T03:07:51.241Z,1007.5
2017-07-22T03:08:53.328Z,1007.5
2017-07-22T03:09:55.757Z,1007.5
2017-07-22T03:10:57.838Z,1007.6
2017-07-22T03:12:00.645Z,1007.6
2017-07-22T03:13:03.431Z,1007.5
2017-07-22T03:14:05.518Z,1007.5
2017-07-22T03:15:07.956Z,1007.5
2017-07-22T03:16:10.390Z,1007.5
2017-07-22T03:17:12.493Z,1007.5
2017-07-22T03:18:14.572Z,1007.5
2017-07-22T03:19:16.679Z,1007.5
2017-07-22T03:20:18.773Z,1007.5
2017-07-22T03:21:21.190Z,1007.5
2017-07-22T03:22:23.314Z,1007.5
2017-07-22T03:23:25.734Z,1007.5
2017-07-22T03:24:28.168Z,1007.5
2017-07-22T03:25:30.259Z,1007.5
2017-07-22T03:26:32.670Z,1007.5
2017-07-22T03:27:34.772Z,1007.5
2017-07-22T03:28:36.868Z,1007.5
2017-07-22T03:29:38.979Z,1007.5
2017-07-22T03:30:41.399Z,1007.5
2017-07-22T03:31:43.501Z,1007.5
2017-07-22T03:32:45.942Z,1007.5
2017-07-22T03:33:48.374Z,1007.5
2017-07-22T03:34:50.811Z,1007.5
2017-07-22T03:35:52.901Z,1007.5
2017-07-22T03:36:55.680Z,1007.5
2017-07-22T03:37:58.470Z,1007.5
2017-07-22T03:39:00.931Z,1007.5
2017-07-22T03:40:03.016Z,1007.5
2017-07-22T03:41:05.114Z,1007.5
2017-07-22T03:42:07.203Z,1007.6
2017-07-22T03:43:09.632Z,1007.6
2017-07-22T03:44:11.726Z,1007.6
2017-07-22T03:45:13.836Z,1007.5
2017-07-22T03:46:15.919Z,1007.6
2017-07-22T03:47:18.017Z,1007.6
2017-07-22T03:48:20.448Z,1007.6
2017-07-22T03:49:22.880Z,1007.6
2017-07-22T03:50:25.340Z,1007.6
2017-07-22T03:51:27.422Z,1007.6
2017-07-22T03:52:29.866Z,1007.6
2017-07-22T03:53:31.955Z,1007.6
2017-07-22T03:54:34.708Z,1007.6
2017-07-22T03:55:37.526Z,1007.7
2017-07-22T03:56:39.619Z,1007.7
2017-07-22T03:57:42.049Z,1007.6
2017-07-22T03:58:44.140Z,1007.6
2017-07-22T03:59:46.584Z,1007.6
2017-07-22T04:00:48.681Z,1007.6
2017-07-22T04:01:50.745Z,1007.6
2017-07-22T04:02:53.198Z,1007.6
2017-07-22T04:03:55.308Z,1007.6
2017-07-22T04:04:57.405Z,1007.6
2017-07-22T04:05:59.493Z,1007.5
2017-07-22T04:07:02.312Z,1007.6
2017-07-22T04:08:04.413Z,1007.6
2017-07-22T04:09:06.502Z,1007.6
2017-07-22T04:10:08.606Z,1007.6
2017-07-22T04:11:11.021Z,1007.5
2017-07-22T04:12:13.451Z,1007.5
2017-07-22T04:13:15.556Z,1007.6
2017-07-22T04:14:17.998Z,1007.5
2017-07-22T04:15:20.435Z,1007.6
2017-07-22T04:16:22.529Z,1007.6
2017-07-22T04:17:24.957Z,1007.5
2017-07-22T04:18:27.374Z,1007.5
2017-07-22T04:19:29.800Z,1007.6
2017-07-22T04:20:32.241Z,1007.6
2017-07-22T04:21:34.329Z,1007.6
2017-07-22T04:22:36.417Z,1007.6
2017-07-22T04:23:38.873Z,1007.5
2017-07-22T04:24:41.305Z,1007.6
2017-07-22T04:25:43.405Z,1007.6
2017-07-22T04:26:45.499Z,1007.6
2017-07-22T04:27:47.600Z,1007.6
2017-07-22T04:28:50.367Z,1007.6
2017-07-22T04:29:52.447Z,1007.7
2017-07-22T04:30:54.537Z,1007.7
2017-07-22T04:31:56.642Z,1007.7
2017-07-22T04:32:59.429Z,1007.8
2017-07-22T04:34:01.848Z,1007.7
2017-07-22T04:35:04.648Z,1007.7
2017-07-22T04:36:07.416Z,1007.8
2017-07-22T04:37:09.494Z,1007.7
2017-07-22T04:38:11.582Z,1007.7
2017-07-22T04:39:14.012Z,1007.8
2017-07-22T04:40:16.114Z,1007.7
2017-07-22T04:41:18.204Z,1007.7
2017-07-22T04:42:20.630Z,1007.7
2017-07-22T04:43:22.726Z,1007.7
2017-07-22T04:44:25.177Z,1007.7
2017-07-22T04:45:27.265Z,1007.7
2017-07-22T04:46:29.358Z,1007.7
2017-07-22T04:47:31.465Z,1007.7
2017-07-22T04:48:33.554Z,1007.7
2017-07-22T04:49:35.664Z,1007.6
2017-07-22T04:50:37.777Z,1007.7
2017-07-22T04:51:40.197Z,1007.7
2017-07-22T04:52:42.306Z,1007.7
2017-07-22T04:53:44.419Z,1007.7
2017-07-22T04:54:46.535Z,1007.6
2017-07-22T04:55:48.640Z,1007.6
2017-07-22T04:56:50.750Z,1007.6
2017-07-22T04:57:52.852Z,1007.6
2017-07-22T04:58:54.966Z,1007.6
2017-07-22T04:59:57.416Z,1007.6
2017-07-22T05:00:59.878Z,1007.6
2017-07-22T05:02:02.337Z,1007.6
2017-07-22T05:03:04.781Z,1007.6
2017-07-22T05:04:06.886Z,1007.6
2017-07-22T05:05:09.329Z,1007.6
2017-07-22T05:06:11.491Z,1007.6
2017-07-22T05:07:13.591Z,1007.6
2017-07-22T05:08:15.703Z,1007.6
2017-07-22T05:09:17.802Z,1007.6
2017-07-22T05:10:20.254Z,1007.6
2017-07-22T05:11:22.356Z,1007.7
2017-07-22T05:12:24.460Z,1007.6
2017-07-22T05:13:26.580Z,1007.6
2017-07-22T05:14:29.031Z,1007.6
2017-07-22T05:15:31.120Z,1007.6
2017-07-22T05:16:33.229Z,1007.6
2017-07-22T05:17:35.694Z,1007.5
2017-07-22T05:18:37.809Z,1007.5
2017-07-22T05:19:39.916Z,1007.5
2017-07-22T05:20:42.028Z,1007.5
2017-07-22T05:21:44.137Z,1007.5
2017-07-22T05:22:46.238Z,1007.5
2017-07-22T05:23:48.346Z,1007.5
2017-07-22T05:24:50.449Z,1007.5
2017-07-22T05:25:52.549Z,1007.5
2017-07-22T05:26:55.029Z,1007.5
2017-07-22T05:27:57.132Z,1007.5
2017-07-22T05:28:59.582Z,1007.5
2017-07-22T05:30:02.055Z,1007.5
2017-07-22T05:31:04.505Z,1007.5
2017-07-22T05:32:06.610Z,1007.5
2017-07-22T05:33:08.758Z,1007.5
2017-07-22T05:34:11.020Z,1007.5
2017-07-22T05:35:13.505Z,1007.5
2017-07-22T05:36:15.620Z,1007.5
2017-07-22T05:37:18.121Z,1007.5
2017-07-22T05:38:20.564Z,1007.5
2017-07-22T05:39:22.681Z,1007.6
2017-07-22T05:40:25.120Z,1007.5
2017-07-22T05:41:27.243Z,1007.7
2017-07-22T05:42:29.347Z,1007.6
2017-07-22T05:43:31.455Z,1007.6
2017-07-22T05:44:33.567Z,1007.7
2017-07-22T05:45:35.679Z,1007.6
2017-07-22T05:46:37.782Z,1007.7
2017-07-22T05:47:40.644Z,1007.7
2017-07-22T05:48:42.727Z,1007.7
2017-07-22T05:49:44.848Z,1007.7
2017-07-22T05:50:46.951Z,1007.7
2017-07-22T05:51:49.068Z,1007.6
2017-07-22T05:52:51.177Z,1007.7
2017-07-22T05:53:53.294Z,1007.7
2017-07-22T05:54:55.776Z,1007.7
2017-07-22T05:55:57.882Z,1007.7
2017-07-22T05:56:59.986Z,1007.7
2017-07-22T05:58:02.120Z,1007.8
2017-07-22T05:59:04.243Z,1007.8
2017-07-22T06:00:06.331Z,1007.7
2017-07-22T06:01:08.452Z,1007.7
2017-07-22T06:02:10.920Z,1007.8
2017-07-22T06:03:13.028Z,1007.7
2017-07-22T06:04:15.131Z,1007.7
2017-07-22T06:05:17.243Z,1007.7
2017-07-22T06:06:19.686Z,1007.7
2017-07-22T06:07:21.810Z,1007.7
2017-07-22T06:08:23.897Z,1007.7
2017-07-22T06:09:26.028Z,1007.7
2017-07-22T06:10:28.131Z,1007.7
2017-07-22T06:11:30.268Z,1007.7
2017-07-22T06:12:32.706Z,1007.7
2017-07-22T06:13:34.810Z,1007.7
2017-07-22T06:14:36.920Z,1007.8
2017-07-22T06:15:39.043Z,1007.9
2017-07-22T06:16:41.151Z,1007.8
2017-07-22T06:17:43.257Z,1007.9
2017-07-22T06:18:45.359Z,1007.8
2017-07-22T06:19:47.481Z,1007.8
2017-07-22T06:20:49.581Z,1007.8
2017-07-22T06:21:52.040Z,1007.8
2017-07-22T06:22:54.467Z,1007.8
2017-07-22T06:23:56.571Z,1007.8
2017-07-22T06:24:58.682Z,1007.8
2017-07-22T06:26:01.447Z,1007.8
2017-07-22T06:27:04.238Z,1007.8
2017-07-22T06:28:06.336Z,1007.8
2017-07-22T06:29:08.462Z,1007.8
2017-07-22T06:30:10.575Z,1007.8
2017-07-22T06:31:12.658Z,1007.8
2017-07-22T06:32:14.793Z,1007.8
2017-07-22T06:33:16.901Z,1007.8
2017-07-22T06:34:19.003Z,1007.8
2017-07-22T06:35:21.118Z,1007.8
2017-07-22T06:36:23.243Z,1007.8
2017-07-22T06:37:25.377Z,1007.8
2017-07-22T06:38:27.476Z,1007.8
2017-07-22T06:39:29.588Z,1007.7
2017-07-22T06:40:31.682Z,1007.7
2017-07-22T06:41:33.783Z,1007.7
2017-07-22T06:42:36.256Z,1007.7
2017-07-22T06:43:39.036Z,1007.6
2017-07-22T06:44:41.138Z,1007.7
2017-07-22T06:45:43.595Z,1007.7
2017-07-22T06:46:46.055Z,1007.7
2017-07-22T06:47:48.154Z,1007.7
2017-07-22T06:48:50.257Z,1007.7
2017-07-22T06:49:52.379Z,1007.7
2017-07-22T06:50:54.845Z,1007.7
2017-07-22T06:51:57.617Z,1007.7
2017-07-22T06:52:59.717Z,1007.7
2017-07-22T06:54:02.492Z,1007.6
2017-07-22T06:55:04.947Z,1007.6
2017-07-22T06:56:08.171Z,1007.6
2017-07-22T06:57:10.301Z,1007.6
2017-07-22T06:58:12.739Z,1007.6
2017-07-22T06:59:15.515Z,1007.6
2017-07-22T07:00:17.619Z,1007.6
2017-07-22T07:01:19.731Z,1007.6
2017-07-22T07:02:21.850Z,1007.7
2017-07-22T07:03:24.294Z,1007.7
2017-07-22T07:04:26.745Z,1007.7
2017-07-22T07:05:29.190Z,1007.7
2017-07-22T07:06:31.294Z,1007.7
2017-07-22T07:07:33.399Z,1007.7
2017-07-22T07:08:35.507Z,1007.7
2017-07-22T07:09:38.303Z,1007.8
2017-07-22T07:10:40.412Z,1007.7
2017-07-22T07:11:42.841Z,1007.7
2017-07-22T07:12:44.940Z,1007.7
2017-07-22T07:13:47.043Z,1007.7
2017-07-22T07:14:49.140Z,1007.7
2017-07-22T07:15:51.256Z,1007.7
2017-07-22T07:16:53.360Z,1007.7
2017-07-22T07:17:55.827Z,1007.7
2017-07-22T07:18:57.944Z,1007.7
2017-07-22T07:20:00.093Z,1007.7
2017-07-22T07:21:02.239Z,1007.7
2017-07-22T07:22:04.351Z,1007.7
2017-07-22T07:23:06.795Z,1007.8
2017-07-22T07:24:08.915Z,1007.7
2017-07-22T07:25:11.010Z,1007.8
2017-07-22T07:26:13.454Z,1007.8
2017-07-22T07:27:15.564Z,1007.8
2017-07-22T07:28:17.661Z,1007.8
2017-07-22T07:29:19.782Z,1007.8
2017-07-22T07:30:21.865Z,1007.8
2017-07-22T07:31:23.990Z,1007.8
2017-07-22T07:32:26.122Z,1007.8
2017-07-22T07:33:28.228Z,1007.8
2017-07-22T07:34:30.327Z,1007.8
2017-07-22T07:35:32.437Z,1007.8
2017-07-22T07:36:34.532Z,1007.9
2017-07-22T07:37:36.631Z,1007.8
2017-07-22T07:38:39.085Z,1007.8
2017-07-22T07:39:41.200Z,1007.8
2017-07-22T07:40:43.988Z,1007.8
2017-07-22T07:41:46.103Z,1007.9
2017-07-22T07:42:48.198Z,1007.9
2017-07-22T07:43:50.319Z,1007.9
2017-07-22T07:44:52.774Z,1007.9
2017-07-22T07:45:55.219Z,1007.9
2017-07-22T07:46:57.345Z,1007.9
2017-07-22T07:47:59.461Z,1007.9
2017-07-22T07:49:01.911Z,1007.9
2017-07-22T07:50:04.712Z,1007.9
2017-07-22T07:51:07.836Z,1007.9
2017-07-22T07:52:10.290Z,1007.8
2017-07-22T07:53:12.393Z,1007.8
2017-07-22T07:54:14.829Z,1007.9
2017-07-22T07:55:17.268Z,1007.9
2017-07-22T07:56:19.753Z,1007.9
2017-07-22T07:57:21.859Z,1007.9
2017-07-22T07:58:23.965Z,1007.9
2017-07-22T07:59:26.065Z,1007.9
2017-07-22T08:00:28.177Z,1007.8
2017-07-22T08:01:30.296Z,1007.9
2017-07-22T08:02:32.407Z,1007.9
2017-07-22T08:03:35.195Z,1007.9
2017-07-22T08:04:37.312Z,1007.8
2017-07-22T08:05:39.409Z,1007.8
2017-07-22T08:06:41.537Z,1007.8
2017-07-22T08:07:43.654Z,1007.8
2017-07-22T08:08:46.090Z,1007.8
2017-07-22T08:09:48.206Z,1007.8
2017-07-22T08:10:50.306Z,1007.8
2017-07-22T08:11:52.447Z,1007.8
2017-07-22T08:12:54.559Z,1007.8
2017-07-22T08:13:56.669Z,1007.8
2017-07-22T08:14:58.768Z,1007.8
2017-07-22T08:16:00.874Z,1007.7
2017-07-22T08:17:03.011Z,1007.8
2017-07-22T08:18:05.100Z,1007.7
2017-07-22T08:19:07.203Z,1007.7
2017-07-22T08:20:09.330Z,1007.7
2017-07-22T08:21:11.442Z,1007.7
2017-07-22T08:22:13.578Z,1007.8
2017-07-22T08:23:15.686Z,1007.8
2017-07-22T08:24:18.130Z,1007.8
2017-07-22T08:25:20.579Z,1007.7
2017-07-22T08:26:22.687Z,1007.7
2017-07-22T08:27:25.160Z,1007.7
2017-07-22T08:28:27.273Z,1007.7
2017-07-22T08:29:29.378Z,1007.7
2017-07-22T08:30:31.843Z,1007.7
2017-07-22T08:31:34.658Z,1007.7
2017-07-22T08:32:36.779Z,1007.7
2017-07-22T08:33:38.885Z,1007.7
2017-07-22T08:34:40.987Z,1007.8
2017-07-22T08:35:43.797Z,1007.8
2017-07-22T08:36:46.272Z,1007.8
2017-07-22T08:37:48.372Z,1007.8
2017-07-22T08:38:50.483Z,1007.7
2017-07-22T08:39:53.265Z,1007.7
2017-07-22T08:40:55.364Z,1007.7
2017-07-22T08:41:57.814Z,1007.7
2017-07-22T08:42:59.925Z,1007.7
2017-07-22T08:44:02.041Z,1007.6
2017-07-22T08:45:04.836Z,1007.6
2017-07-22T08:46:07.256Z,1007.6
2017-07-22T08:47:09.380Z,1007.6
2017-07-22T08:48:11.504Z,1007.5
2017-07-22T08:49:13.955Z,1007.6
2017-07-22T08:50:16.063Z,1007.6
2017-07-22T08:51:18.184Z,1007.6
2017-07-22T08:52:20.292Z,1007.6
2017-07-22T08:53:22.388Z,1007.5
2017-07-22T08:54:24.502Z,1007.6
2017-07-22T08:55:26.941Z,1007.6
2017-07-22T08:56:29.045Z,1007.6
2017-07-22T08:57:31.499Z,1007.7
2017-07-22T08:58:33.605Z,1007.7
2017-07-22T08:59:35.718Z,1007.7
2017-07-22T09:00:38.186Z,1007.7
2017-07-22T09:01:40.637Z,1007.7
2017-07-22T09:02:42.753Z,1007.6
2017-07-22T09:03:45.199Z,1007.6
2017-07-22T09:04:47.629Z,1007.6
2017-07-22T09:05:50.425Z,1007.6
2017-07-22T09:06:53.433Z,1007.5
2017-07-22T09:07:55.557Z,1007.6
2017-07-22T09:08:58.012Z,1007.5
2017-07-22T09:10:00.446Z,1007.6
2017-07-22T09:11:02.554Z,1007.5
2017-07-22T09:12:04.686Z,1007.6
2017-07-22T09:13:07.131Z,1007.6
2017-07-22T09:14:09.582Z,1007.6
2017-07-22T09:15:11.688Z,1007.6
2017-07-22T09:16:13.793Z,1007.6
2017-07-22T09:17:16.592Z,1007.6
2017-07-22T09:18:19.034Z,1007.6
2017-07-22T09:19:21.542Z,1007.6
2017-07-22T09:20:23.649Z,1007.6
2017-07-22T09:21:25.779Z,1007.5
2017-07-22T09:22:27.896Z,1007.6
2017-07-22T09:23:30.001Z,1007.6
2017-07-22T09:24:32.109Z,1007.6
2017-07-22T09:25:34.560Z,1007.6
2017-07-22T09:26:36.663Z,1007.6
2017-07-22T09:27:38.783Z,1007.6
2017-07-22T09:28:40.889Z,1007.6
2017-07-22T09:29:43.334Z,1007.6
2017-07-22T09:30:45.777Z,1007.6
2017-07-22T09:31:47.894Z,1007.6
2017-07-22T09:32:49.992Z,1007.6
2017-07-22T09:33:52.102Z,1007.6
2017-07-22T09:34:54.199Z,1007.6
2017-07-22T09:35:56.302Z,1007.6
2017-07-22T09:36:58.412Z,1007.6
2017-07-22T09:38:00.517Z,1007.6
2017-07-22T09:39:02.994Z,1007.6
2017-07-22T09:40:05.448Z,1007.6
2017-07-22T09:41:07.883Z,1007.6
2017-07-22T09:42:10.346Z,1007.6
2017-07-22T09:43:12.452Z,1007.6
2017-07-22T09:44:14.583Z,1007.7
2017-07-22T09:45:16.694Z,1007.7
2017-07-22T09:46:19.175Z,1007.6
2017-07-22T09:47:21.292Z,1007.7
2017-07-22T09:48:23.404Z,1007.6
2017-07-22T09:49:25.514Z,1007.7
2017-07-22T09:50:27.964Z,1007.7
2017-07-22T09:51:30.057Z,1007.7
2017-07-22T09:52:32.186Z,1007.6
2017-07-22T09:53:34.624Z,1007.7
2017-07-22T09:54:36.720Z,1007.7
2017-07-22T09:55:38.837Z,1007.7
2017-07-22T09:56:40.945Z,1007.7
2017-07-22T09:57:43.064Z,1007.7
2017-07-22T09:58:45.528Z,1007.7
2017-07-22T09:59:47.647Z,1007.7
2017-07-22T10:00:50.117Z,1007.7
2017-07-22T10:01:52.212Z,1007.6
2017-07-22T10:02:55.011Z,1007.7
2017-07-22T10:03:57.129Z,1007.6
2017-07-22T10:04:59.236Z,1007.7
2017-07-22T10:06:01.339Z,1007.7
2017-07-22T10:07:03.798Z,1007.7
2017-07-22T10:08:06.237Z,1007.7
2017-07-22T10:09:08.336Z,1007.7
2017-07-22T10:10:10.484Z,1007.7
2017-07-22T10:11:13.270Z,1007.7
2017-07-22T10:12:15.423Z,1007.7
2017-07-22T10:13:17.547Z,1007.7
2017-07-22T10:14:19.980Z,1007.7
2017-07-22T10:15:22.111Z,1007.7
2017-07-22T10:16:24.212Z,1007.6
2017-07-22T10:17:26.687Z,1007.7
2017-07-22T10:18:28.801Z,1007.7
2017-07-22T10:19:30.906Z,1007.7
2017-07-22T10:20:33.362Z,1007.7
2017-07-22T10:21:35.454Z,1007.7
2017-07-22T10:22:37.557Z,1007.6
2017-07-22T10:23:40.379Z,1007.6
2017-07-22T10:24:42.839Z,1007.7
2017-07-22T10:25:44.960Z,1007.7
2017-07-22T10:26:47.432Z,1007.7
2017-07-22T10:27:49.551Z,1007.7
2017-07-22T10:28:51.661Z,1007.6
2017-07-22T10:29:53.778Z,1007.7
2017-07-22T10:30:56.230Z,1007.7
2017-07-22T10:31:58.681Z,1007.7
2017-07-22T10:33:00.814Z,1007.7
2017-07-22T10:34:03.252Z,1007.8
2017-07-22T10:35:05.359Z,1007.8
2017-07-22T10:36:07.484Z,1007.8
2017-07-22T10:37:09.588Z,1007.9
2017-07-22T10:38:11.702Z,1007.9
2017-07-22T10:39:13.807Z,1007.9
2017-07-22T10:40:15.933Z,1008
2017-07-22T10:41:18.390Z,1008
2017-07-22T10:42:21.179Z,1007.9
2017-07-22T10:43:23.295Z,1008
2017-07-22T10:44:25.403Z,1008
2017-07-22T10:45:27.547Z,1008
2017-07-22T10:46:30.331Z,1008
2017-07-22T10:47:32.452Z,1008
2017-07-22T10:48:34.897Z,1008
2017-07-22T10:49:37.335Z,1008.1
2017-07-22T10:50:39.464Z,1008.1
2017-07-22T10:51:41.575Z,1008.1
2017-07-22T10:52:44.035Z,1008.2
2017-07-22T10:53:46.132Z,1008.1
2017-07-22T10:54:48.251Z,1008.2
2017-07-22T10:55:50.374Z,1008.2
2017-07-22T10:56:52.457Z,1008.3
2017-07-22T10:57:54.583Z,1008.3
2017-07-22T10:58:56.717Z,1008.3
2017-07-22T10:59:58.823Z,1008.3
2017-07-22T11:01:00.940Z,1008.3
2017-07-22T11:02:03.387Z,1008.3
2017-07-22T11:03:05.521Z,1008.3
2017-07-22T11:04:07.631Z,1008.3
2017-07-22T11:05:09.740Z,1008.3
2017-07-22T11:06:11.829Z,1008.4
2017-07-22T11:07:13.954Z,1008.4
2017-07-22T11:08:16.332Z,1008.3
2017-07-22T11:09:18.445Z,1008.4
2017-07-22T11:10:20.557Z,1008.4
2017-07-22T11:11:23.006Z,1008.4
2017-07-22T11:12:25.113Z,1008.4
2017-07-22T11:13:27.226Z,1008.3
2017-07-22T11:14:30.034Z,1008.3
2017-07-22T11:15:32.494Z,1008.3
2017-07-22T11:16:34.631Z,1008.3
2017-07-22T11:17:36.788Z,1008.3
2017-07-22T11:18:38.901Z,1008.4
2017-07-22T11:19:41.009Z,1008.4
2017-07-22T11:20:43.798Z,1008.4
2017-07-22T11:21:45.898Z,1008.5
2017-07-22T11:22:48.016Z,1008.5
2017-07-22T11:23:50.119Z,1008.5
2017-07-22T11:24:52.585Z,1008.5
2017-07-22T11:25:54.723Z,1008.5
2017-07-22T11:26:56.828Z,1008.5
2017-07-22T11:27:59.286Z,1008.5
2017-07-22T11:29:01.381Z,1008.6
2017-07-22T11:30:03.502Z,1008.6
2017-07-22T11:31:05.619Z,1008.6
2017-07-22T11:32:08.072Z,1008.6
2017-07-22T11:33:10.184Z,1008.6
2017-07-22T11:34:12.280Z,1008.6
2017-07-22T11:35:15.072Z,1008.7
2017-07-22T11:36:17.190Z,1008.7
2017-07-22T11:37:19.305Z,1008.7
2017-07-22T11:38:21.764Z,1008.6
2017-07-22T11:39:23.865Z,1008.7
2017-07-22T11:40:25.980Z,1008.7
2017-07-22T11:41:28.067Z,1008.7
2017-07-22T11:42:30.179Z,1008.6
2017-07-22T11:43:32.301Z,1008.6
2017-07-22T11:44:34.399Z,1008.6
2017-07-22T11:45:37.186Z,1008.6
2017-07-22T11:46:39.637Z,1008.6
2017-07-22T11:47:41.745Z,1008.6
2017-07-22T11:48:43.873Z,1008.5
2017-07-22T11:49:46.300Z,1008.5
2017-07-22T11:50:48.756Z,1008.5
2017-07-22T11:51:50.861Z,1008.4
2017-07-22T11:52:52.982Z,1008.4
2017-07-22T11:53:55.088Z,1008.4
2017-07-22T11:54:57.197Z,1008.4
2017-07-22T11:55:59.641Z,1008.4
2017-07-22T11:57:02.441Z,1008.4
2017-07-22T11:58:04.534Z,1008.4
2017-07-22T11:59:06.995Z,1008.4
2017-07-22T12:00:09.462Z,1008.4
2017-07-22T12:01:11.969Z,1008.3
2017-07-22T12:02:14.114Z,1008.3
2017-07-22T12:03:16.251Z,1008.3
2017-07-22T12:04:18.700Z,1008.2
2017-07-22T12:05:21.189Z,1008.3
2017-07-22T12:06:23.328Z,1008.3
2017-07-22T12:07:25.457Z,1008.3
2017-07-22T12:08:27.649Z,1008.2
2017-07-22T12:09:30.118Z,1008.2
2017-07-22T12:10:32.612Z,1008.1
2017-07-22T12:11:34.789Z,1008.1
2017-07-22T12:12:36.929Z,1008.1
2017-07-22T12:13:39.115Z,1008.1
2017-07-22T12:14:41.568Z,1008.1
2017-07-22T12:15:43.681Z,1008.1
2017-07-22T12:16:45.808Z,1008.1
2017-07-22T12:17:48.296Z,1008.1
2017-07-22T12:18:50.787Z,1008.1
2017-07-22T12:19:53.289Z,1008.1
2017-07-22T12:20:55.784Z,1008
2017-07-22T12:21:57.942Z,1008
2017-07-22T12:23:00.095Z,1008
2017-07-22T12:24:02.560Z,1007.9
2017-07-22T12:25:05.035Z,1007.9
2017-07-22T12:26:07.498Z,1008
2017-07-22T12:27:09.628Z,1007.9
2017-07-22T12:28:11.784Z,1007.9
2017-07-22T12:29:13.912Z,1007.9
2017-07-22T12:30:16.408Z,1007.9
2017-07-22T12:31:18.544Z,1007.9
2017-07-22T12:32:20.681Z,1007.9
2017-07-22T12:33:22.838Z,1007.9
2017-07-22T12:34:24.998Z,1007.9
2017-07-22T12:35:27.519Z,1007.8
2017-07-22T12:36:30.001Z,1007.8
2017-07-22T12:37:32.173Z,1007.8
2017-07-22T12:38:35.002Z,1007.8
2017-07-22T12:39:37.476Z,1007.9
2017-07-22T12:40:39.635Z,1007.8
2017-07-22T12:41:41.786Z,1007.8
2017-07-22T12:42:43.937Z,1007.8
2017-07-22T12:43:46.051Z,1007.8
2017-07-22T12:44:48.534Z,1007.8
2017-07-22T12:45:51.376Z,1007.8
2017-07-22T12:46:53.514Z,1007.8
2017-07-22T12:47:55.669Z,1007.8
2017-07-22T12:48:57.785Z,1007.8
2017-07-22T12:50:00.238Z,1007.8
2017-07-22T12:51:02.398Z,1007.8
2017-07-22T12:52:04.880Z,1007.8
2017-07-22T12:53:07.035Z,1007.7
2017-07-22T12:54:09.184Z,1007.7
2017-07-22T12:55:11.659Z,1007.7
2017-07-22T12:56:13.807Z,1007.7
2017-07-22T12:57:16.206Z,1007.8
2017-07-22T12:58:18.696Z,1007.7